Anatife — FGE8389 — position and weather

sailwx.info

Track history (hours):
 
Tides and Currents Weather Stations Pressure Air Temp Water Temp Dewpoint Dewpoint Depression Visibility Wind Speed Wind Dir Waves Ship Positions

Anatife

Last reported at 2016-Feb-08 21:14 UTC. Time now 2016-Feb-08 23:20 UTC.
Position N 47°12' W 001°37'.

Length 41 m; draft 2 m.

Type: Tanker. MMSI: 227681520.

Date/timePositionNaut miles runAvg speedWind from/ knotsBaromVisibWave heightAir tempDewpointWater temp
2016-Feb-08 21:14N 47°12' W 001°37'0 0.0
2016-Feb-08 20:33N 47°12' W 001°37'0 0.0
2016-Feb-08 16:19N 47°12' W 001°37'0 0.0
2016-Feb-08 15:33N 47°12' W 001°37'0 0.0
2016-Feb-08 14:33N 47°12' W 001°37'0 0.0
2016-Feb-08 13:33N 47°12' W 001°37'0 0.0
2016-Feb-08 12:33N 47°12' W 001°37'0 0.0
2016-Feb-08 11:33N 47°12' W 001°37'0 0.0
2016-Feb-08 10:33N 47°12' W 001°37'0 0.0
2016-Feb-08 09:33N 47°12' W 001°37'0 0.0
2016-Feb-08 08:19N 47°12' W 001°37'0 0.0
2016-Feb-06 17:20N 47°12' W 001°37'0 0.0
2016-Feb-06 16:33N 47°12' W 001°37'0 0.0
2016-Feb-06 15:33N 47°12' W 001°37'0 0.0
2016-Feb-06 14:05N 47°12' W 001°37'0 0.0
2016-Feb-06 08:13N 47°12' W 001°37'0 0.0
2016-Feb-06 07:27N 47°12' W 001°37'0 0.0
2016-Feb-06 06:32N 47°12' W 001°37'0 0.0
2016-Feb-06 02:32N 47°12' W 001°37'0 0.0
2016-Feb-06 01:33N 47°12' W 001°37'0 0.0
2016-Feb-06 00:33N 47°12' W 001°37'0 0.0
2016-Feb-05 23:28N 47°12' W 001°37'0 0.0
2016-Feb-05 22:31N 47°12' W 001°37'0 0.0
2016-Feb-05 21:30N 47°12' W 001°37'0 0.0
2016-Feb-05 20:23N 47°12' W 001°37'0 0.0
2016-Feb-05 19:33N 47°12' W 001°37'0 0.0
2016-Feb-05 18:34N 47°12' W 001°37'0 0.0
2016-Feb-05 17:33N 47°12' W 001°37'0 0.0
2016-Feb-05 16:33N 47°12' W 001°37'0 0.0
2016-Feb-05 15:33N 47°12' W 001°37'0 0.0
2016-Feb-05 14:33N 47°12' W 001°37'0 0.0
2016-Feb-05 13:33N 47°12' W 001°37'0 0.0
2016-Feb-05 12:33N 47°12' W 001°37'0 0.0
2016-Feb-05 11:34N 47°12' W 001°37'0 0.1
2016-Feb-05 10:33N 47°12' W 001°37'8 8.3
2016-Feb-05 09:33N 47°13' W 001°49'8 7.9
2016-Feb-05 08:34N 47°17' W 001°59'4 4.0
2016-Feb-05 07:33N 47°18' W 002°05'0 0.0
2016-Feb-05 06:33N 47°18' W 002°05'0 0.0
2016-Feb-05 05:33N 47°18' W 002°05'0 0.0
2016-Feb-05 04:33N 47°18' W 002°05'0 0.0
2016-Feb-05 03:33N 47°18' W 002°05'0 0.0
2016-Feb-05 02:34N 47°18' W 002°05'0 0.0
2016-Feb-05 01:33N 47°18' W 002°05'0 0.0
2016-Feb-05 00:33N 47°18' W 002°05'0 0.0
2016-Feb-04 23:33N 47°18' W 002°05'0 0.0
2016-Feb-04 22:33N 47°18' W 002°05'0 0.0
2016-Feb-04 21:33N 47°18' W 002°05'0 0.0
2016-Feb-04 20:33N 47°18' W 002°05'0 0.0
2016-Feb-04 19:33N 47°18' W 002°05'0 0.0
2016-Feb-04 18:33N 47°18' W 002°05'0 0.0
2016-Feb-04 17:33N 47°18' W 002°05'0 0.0
2016-Feb-04 16:34N 47°18' W 002°05'0 0.0
2016-Feb-04 15:34N 47°18' W 002°05'0 0.0
2016-Feb-04 14:33N 47°18' W 002°05'0 0.0
2016-Feb-04 13:33N 47°18' W 002°05'0 0.0
2016-Feb-04 12:33N 47°18' W 002°05'0 0.0
2016-Feb-04 11:33N 47°18' W 002°05'0 0.0
2016-Feb-04 10:33N 47°18' W 002°05'0 0.0
2016-Feb-04 09:33N 47°18' W 002°05'0 0.0
2016-Feb-04 08:33N 47°18' W 002°05'0 0.0
2016-Feb-04 07:33N 47°18' W 002°05'0 0.0
2016-Feb-04 06:34N 47°18' W 002°05'1 1.4
2016-Feb-04 05:33N 47°18' W 002°07'8 7.9
2016-Feb-04 04:33N 47°13' W 002°16'10 9.6
2016-Feb-04 03:32N 47°05' W 002°24'10 8.9
2016-Feb-04 02:25N 46°56' W 002°28'8 9.2
2016-Feb-04 01:33N 46°48' W 002°24'5 3.9
2016-Feb-04 00:12N 46°44' W 002°21'0 0.0
2016-Feb-03 00:26N 46°44' W 002°21'0 0.0
2016-Feb-02 23:21N 46°44' W 002°21'0 0.0
2016-Feb-02 22:32N 46°44' W 002°21'0 0.0
2016-Feb-02 21:33N 46°44' W 002°21'0 0.0
2016-Feb-02 20:33N 46°44' W 002°21'0 0.0
2016-Feb-02 16:23N 46°44' W 002°21'0 0.0
2016-Feb-01 20:04N 46°44' W 002°21'15 5.1
2016-Feb-01 17:08N 46°58' W 002°28'6 8.6
2016-Feb-01 16:29N 47°03' W 002°27'8 8.7
2016-Feb-01 15:33N 47°09' W 002°19'1010.0
2016-Feb-01 14:31N 47°17' W 002°10'3 3.4
2016-Feb-01 13:33N 47°18' W 002°05'0 0.0
2016-Feb-01 12:31N 47°18' W 002°05'  
Track history (hours):
 
Tides and Currents Weather Stations Pressure Air Temp Water Temp Dewpoint Dewpoint Depression Visibility Wind Speed Wind Dir Waves Ship Positions

Anatife

Last reported at 2016-Feb-08 21:14 UTC. Time now 2016-Feb-08 23:20 UTC.
Position N 47°12' W 001°37'.

Length 41 m; draft 2 m.

Type: Tanker. MMSI: 227681520.

Date/timePositionNaut miles runAvg speedWind from/ knotsBaromVisibWave heightAir tempDewpointWater temp
2016-Feb-08 21:14N 47°12' W 001°37'0 0.0
2016-Feb-08 20:33N 47°12' W 001°37'0 0.0
2016-Feb-08 16:19N 47°12' W 001°37'0 0.0
2016-Feb-08 15:33N 47°12' W 001°37'0 0.0
2016-Feb-08 14:33N 47°12' W 001°37'0 0.0
2016-Feb-08 13:33N 47°12' W 001°37'0 0.0
2016-Feb-08 12:33N 47°12' W 001°37'0 0.0
2016-Feb-08 11:33N 47°12' W 001°37'0 0.0
2016-Feb-08 10:33N 47°12' W 001°37'0 0.0
2016-Feb-08 09:33N 47°12' W 001°37'0 0.0
2016-Feb-08 08:19N 47°12' W 001°37'0 0.0
2016-Feb-06 17:20N 47°12' W 001°37'0 0.0
2016-Feb-06 16:33N 47°12' W 001°37'0 0.0
2016-Feb-06 15:33N 47°12' W 001°37'0 0.0
2016-Feb-06 14:05N 47°12' W 001°37'0 0.0
2016-Feb-06 08:13N 47°12' W 001°37'0 0.0
2016-Feb-06 07:27N 47°12' W 001°37'0 0.0
2016-Feb-06 06:32N 47°12' W 001°37'0 0.0
2016-Feb-06 02:32N 47°12' W 001°37'0 0.0
2016-Feb-06 01:33N 47°12' W 001°37'0 0.0
2016-Feb-06 00:33N 47°12' W 001°37'0 0.0
2016-Feb-05 23:28N 47°12' W 001°37'0 0.0
2016-Feb-05 22:31N 47°12' W 001°37'0 0.0
2016-Feb-05 21:30N 47°12' W 001°37'0 0.0
2016-Feb-05 20:23N 47°12' W 001°37'0 0.0
2016-Feb-05 19:33N 47°12' W 001°37'0 0.0
2016-Feb-05 18:34N 47°12' W 001°37'0 0.0
2016-Feb-05 17:33N 47°12' W 001°37'0 0.0
2016-Feb-05 16:33N 47°12' W 001°37'0 0.0
2016-Feb-05 15:33N 47°12' W 001°37'0 0.0
2016-Feb-05 14:33N 47°12' W 001°37'0 0.0
2016-Feb-05 13:33N 47°12' W 001°37'0 0.0
2016-Feb-05 12:33N 47°12' W 001°37'0 0.0
2016-Feb-05 11:34N 47°12' W 001°37'0 0.1
2016-Feb-05 10:33N 47°12' W 001°37'8 8.3
2016-Feb-05 09:33N 47°13' W 001°49'8 7.9
2016-Feb-05 08:34N 47°17' W 001°59'4 4.0
2016-Feb-05 07:33N 47°18' W 002°05'0 0.0
2016-Feb-05 06:33N 47°18' W 002°05'0 0.0
2016-Feb-05 05:33N 47°18' W 002°05'0 0.0
2016-Feb-05 04:33N 47°18' W 002°05'0 0.0
2016-Feb-05 03:33N 47°18' W 002°05'0 0.0
2016-Feb-05 02:34N 47°18' W 002°05'0 0.0
2016-Feb-05 01:33N 47°18' W 002°05'0 0.0
2016-Feb-05 00:33N 47°18' W 002°05'0 0.0
2016-Feb-04 23:33N 47°18' W 002°05'0 0.0
2016-Feb-04 22:33N 47°18' W 002°05'0 0.0
2016-Feb-04 21:33N 47°18' W 002°05'0 0.0
2016-Feb-04 20:33N 47°18' W 002°05'0 0.0
2016-Feb-04 19:33N 47°18' W 002°05'0 0.0
2016-Feb-04 18:33N 47°18' W 002°05'0 0.0
2016-Feb-04 17:33N 47°18' W 002°05'0 0.0
2016-Feb-04 16:34N 47°18' W 002°05'0 0.0
2016-Feb-04 15:34N 47°18' W 002°05'0 0.0
2016-Feb-04 14:33N 47°18' W 002°05'0 0.0
2016-Feb-04 13:33N 47°18' W 002°05'0 0.0
2016-Feb-04 12:33N 47°18' W 002°05'0 0.0
2016-Feb-04 11:33N 47°18' W 002°05'0 0.0
2016-Feb-04 10:33N 47°18' W 002°05'0 0.0
2016-Feb-04 09:33N 47°18' W 002°05'0 0.0
2016-Feb-04 08:33N 47°18' W 002°05'0 0.0
2016-Feb-04 07:33N 47°18' W 002°05'0 0.0
2016-Feb-04 06:34N 47°18' W 002°05'1 1.4
2016-Feb-04 05:33N 47°18' W 002°07'8 7.9
2016-Feb-04 04:33N 47°13' W 002°16'10 9.6
2016-Feb-04 03:32N 47°05' W 002°24'10 8.9
2016-Feb-04 02:25N 46°56' W 002°28'8 9.2
2016-Feb-04 01:33N 46°48' W 002°24'5 3.9
2016-Feb-04 00:12N 46°44' W 002°21'0 0.0
2016-Feb-03 00:26N 46°44' W 002°21'0 0.0
2016-Feb-02 23:21N 46°44' W 002°21'0 0.0
2016-Feb-02 22:32N 46°44' W 002°21'0 0.0
2016-Feb-02 21:33N 46°44' W 002°21'0 0.0
2016-Feb-02 20:33N 46°44' W 002°21'0 0.0
2016-Feb-02 16:23N 46°44' W 002°21'0 0.0
2016-Feb-01 20:04N 46°44' W 002°21'15 5.1
2016-Feb-01 17:08N 46°58' W 002°28'6 8.6
2016-Feb-01 16:29N 47°03' W 002°27'8 8.7
2016-Feb-01 15:33N 47°09' W 002°19'1010.0
2016-Feb-01 14:31N 47°17' W 002°10'3 3.4
2016-Feb-01 13:33N 47°18' W 002°05'0 0.0
2016-Feb-01 12:31N 47°18' W 002°05'  

Dump ship's entire track history